Time;durP1;ratioP1;P1;durP2;ratioP2;P2;SDS_P1;SDS_P2;PMS_P1;PMS_P2;Temp;Humidity;BMP_temperature;BMP_pressure;BME280_temperature;BME280_humidity;BME280_pressure;Samples;Min_cycle;Max_cycle;Signal;HPM_P1;HPM_P2
2023/05/09 00:01:45;;;;;;;3.73;2.10;;;22.40;82.70;;;;;;5021093;28;20949;-85
2023/05/09 00:04:12;;;;;;;1.70;1.60;;;22.40;82.50;;;;;;5021413;28;20945;-85
2023/05/09 00:06:39;;;;;;;2.17;1.80;;;22.40;82.50;;;;;;5027479;28;20468;-85
2023/05/09 00:09:06;;;;;;;1.97;1.40;;;22.30;82.40;;;;;;5019959;28;21021;-85
2023/05/09 00:11:32;;;;;;;1.83;1.73;;;22.30;82.40;;;;;;5026947;28;20457;-84
2023/05/09 00:14:01;;;;;;;1.80;1.70;;;22.30;82.20;;;;;;5026285;28;20901;-84
2023/05/09 00:16:28;;;;;;;1.63;1.53;;;22.30;82.30;;;;;;5018548;28;20487;-85
2023/05/09 00:18:56;;;;;;;1.67;1.57;;;22.30;82.30;;;;;;5022164;28;20474;-85
2023/05/09 00:21:23;;;;;;;1.90;1.80;;;22.30;82.30;;;;;;5019321;28;20479;-85
2023/05/09 00:23:50;;;;;;;2.00;1.80;;;22.30;82.30;;;;;;5025670;28;20462;-85
2023/05/09 00:26:17;;;;;;;2.00;1.80;;;22.30;82.30;;;;;;5028398;28;20451;-85
2023/05/09 00:28:43;;;;;;;3.47;1.90;;;22.30;82.30;;;;;;5025156;28;20467;-85
2023/05/09 00:31:12;;;;;;;1.80;1.63;;;22.30;82.30;;;;;;5029892;28;20474;-85
2023/05/09 00:33:38;;;;;;;1.70;1.60;;;22.30;82.20;;;;;;5027661;28;20459;-85
2023/05/09 00:36:06;;;;;;;1.80;1.70;;;22.30;82.30;;;;;;5026150;28;20486;-85
2023/05/09 00:38:32;;;;;;;1.73;1.63;;;22.30;82.30;;;;;;5019202;28;20489;-84
2023/05/09 00:40:59;;;;;;;1.80;1.70;;;22.30;82.20;;;;;;5023998;28;20469;-84
2023/05/09 00:43:26;;;;;;;4.80;1.65;;;22.30;82.20;;;;;;5031300;28;20450;-84
2023/05/09 00:45:52;;;;;;;2.47;1.80;;;22.30;82.30;;;;;;5024343;28;20204;-84
2023/05/09 00:48:21;;;;;;;1.50;1.40;;;22.30;82.30;;;;;;5028469;28;20470;-85
2023/05/09 00:50:51;;;;;;;1.80;1.70;;;22.20;82.30;;;;;;5022708;28;20219;-85
2023/05/09 00:53:18;;;;;;;3.10;1.80;;;22.20;82.10;;;;;;5030430;28;20482;-85
2023/05/09 00:55:45;;;;;;;2.73;1.90;;;22.20;82.20;;;;;;5028249;28;20482;-85
2023/05/09 00:58:12;;;;;;;1.70;1.60;;;22.20;82.30;;;;;;5026681;28;22346;-86
2023/05/09 01:00:38;;;;;;;1.60;1.50;;;22.20;82.10;;;;;;5026323;28;20874;-86
2023/05/09 01:03:06;;;;;;;1.90;1.40;;;22.20;82.10;;;;;;5029435;28;20470;-85
2023/05/09 01:05:42;;;;;;;1.55;1.45;;;22.20;82.10;;;;;;5032226;28;20566;-85
2023/05/09 01:08:17;;;;;;;2.03;1.92;;;22.20;82.10;;;;;;5023377;28;20192;-85
2023/05/09 01:10:54;;;;;;;1.60;1.50;;;22.20;81.90;;;;;;5027654;28;20281;-85
2023/05/09 01:13:27;;;;;;;1.95;1.85;;;22.20;81.90;;;;;;5025778;28;20458;-85
2023/05/09 01:16:04;;;;;;;1.70;1.60;;;22.20;81.90;;;;;;5029549;28;20220;-85
2023/05/09 01:18:39;;;;;;;1.67;1.58;;;22.30;81.90;;;;;;5028619;28;20208;-84
2023/05/09 01:21:11;;;;;;;1.70;1.57;;;22.30;82.10;;;;;;5024393;28;20195;-85
2023/05/09 01:23:58;;;;;;;1.57;1.47;;;22.30;82.00;;;;;;5029747;28;20435;-85
2023/05/09 01:26:34;;;;;;;1.67;1.57;;;22.30;82.00;;;;;;5023210;28;20463;-85
2023/05/09 01:29:28;;;;;;;1.60;1.37;;;22.30;82.10;;;;;;5017500;28;20980;-86
2023/05/09 01:31:57;;;;;;;2.93;1.70;;;22.30;82.00;;;;;;5016132;28;20474;-85
2023/05/09 01:34:27;;;;;;;1.63;1.53;;;22.30;82.00;;;;;;5026520;28;20798;-85
2023/05/09 01:36:58;;;;;;;1.80;1.70;;;22.30;82.00;;;;;;5025360;28;20494;-85
2023/05/09 01:39:26;;;;;;;1.60;1.47;;;22.30;82.00;;;;;;5025657;28;20228;-85
2023/05/09 01:41:55;;;;;;;1.23;1.13;;;22.30;81.90;;;;;;5023739;28;20817;-85
2023/05/09 01:44:23;;;;;;;1.60;1.50;;;22.30;81.90;;;;;;5028458;28;20459;-87
2023/05/09 01:46:51;;;;;;;1.50;1.40;;;22.30;81.90;;;;;;5024719;28;20945;-85
2023/05/09 01:49:21;;;;;;;1.40;1.30;;;22.30;81.80;;;;;;5027121;28;20458;-86
2023/05/09 01:51:50;;;;;;;1.70;1.60;;;22.30;81.80;;;;;;5025127;28;20657;-86
2023/05/09 01:54:18;;;;;;;1.40;1.30;;;22.30;81.90;;;;;;5028448;28;20912;-85
2023/05/09 01:56:46;;;;;;;1.50;1.40;;;22.30;81.90;;;;;;5029599;28;20490;-86
2023/05/09 01:59:15;;;;;;;2.00;1.90;;;22.30;81.90;;;;;;5023397;28;20481;-86
2023/05/09 02:01:42;;;;;;;1.30;1.20;;;22.30;81.80;;;;;;5019339;28;21192;-85
2023/05/09 02:04:09;;;;;;;1.73;1.63;;;22.30;81.90;;;;;;5024904;28;20462;-85
2023/05/09 02:06:38;;;;;;;1.40;1.23;;;22.30;81.90;;;;;;5024042;28;20473;-85
2023/05/09 02:09:05;;;;;;;1.70;1.60;;;22.30;81.70;;;;;;5025157;28;20455;-85
2023/05/09 02:11:32;;;;;;;1.27;1.17;;;22.30;81.80;;;;;;5024803;28;20447;-85
2023/05/09 02:13:59;;;;;;;1.90;1.80;;;22.30;81.80;;;;;;5020813;28;20196;-85
2023/05/09 02:16:26;;;;;;;1.60;1.33;;;22.30;81.80;;;;;;5027206;28;20553;-86
2023/05/09 02:18:53;;;;;;;1.30;1.20;;;22.30;81.80;;;;;;5023243;28;20560;-85
2023/05/09 02:21:20;;;;;;;1.73;1.40;;;22.30;81.80;;;;;;5020888;28;20462;-85
2023/05/09 02:23:48;;;;;;;1.40;1.30;;;22.30;81.70;;;;;;5026277;28;20482;-85
2023/05/09 02:26:15;;;;;;;1.40;1.20;;;22.30;81.70;;;;;;5023373;28;20288;-85
2023/05/09 02:28:44;;;;;;;1.58;1.48;;;22.30;81.70;;;;;;5022016;28;20467;-85
2023/05/09 02:31:11;;;;;;;1.27;1.17;;;22.30;81.70;;;;;;5024305;28;20202;-85
2023/05/09 02:33:39;;;;;;;2.37;1.37;;;22.30;81.70;;;;;;5017201;28;20466;-84
2023/05/09 02:36:08;;;;;;;1.88;1.42;;;22.30;81.70;;;;;;5024730;28;20510;-85
2023/05/09 02:38:35;;;;;;;1.30;1.20;;;22.30;81.60;;;;;;5021642;28;20196;-84
2023/05/09 02:41:03;;;;;;;1.60;1.50;;;22.30;81.60;;;;;;5027290;28;20465;-84
2023/05/09 02:43:30;;;;;;;1.43;1.33;;;22.30;81.70;;;;;;5021869;28;20212;-85
2023/05/09 02:45:57;;;;;;;2.20;1.50;;;22.30;81.70;;;;;;5025078;28;20459;-85
2023/05/09 02:48:24;;;;;;;1.15;1.05;;;22.30;81.60;;;;;;5024902;28;20462;-84
2023/05/09 02:50:50;;;;;;;2.00;1.80;;;22.30;81.70;;;;;;5016762;28;20200;-84
2023/05/09 02:53:17;;;;;;;1.50;1.40;;;22.20;81.50;;;;;;5027999;28;20948;-88
2023/05/09 02:55:44;;;;;;;1.97;1.77;;;22.30;81.60;;;;;;5027731;28;20467;-85
2023/05/09 02:58:12;;;;;;;1.20;1.03;;;22.30;81.70;;;;;;5020780;28;20458;-84
2023/05/09 03:00:38;;;;;;;1.57;1.47;;;22.30;81.60;;;;;;5028423;28;20463;-84
2023/05/09 03:03:05;;;;;;;1.30;1.17;;;22.30;81.70;;;;;;5019892;28;20462;-85
2023/05/09 03:05:32;;;;;;;1.30;1.17;;;22.20;81.40;;;;;;5024963;28;20211;-84
2023/05/09 03:07:59;;;;;;;1.50;1.40;;;22.20;81.50;;;;;;5028930;28;20287;-84
2023/05/09 03:10:25;;;;;;;1.63;1.52;;;22.20;81.40;;;;;;5027513;28;20458;-84
2023/05/09 03:12:52;;;;;;;1.40;1.30;;;22.20;81.50;;;;;;5021879;28;20275;-84
2023/05/09 03:15:21;;;;;;;1.50;1.40;;;22.20;81.40;;;;;;5025441;28;20227;-84
2023/05/09 03:17:47;;;;;;;1.50;1.40;;;22.20;81.40;;;;;;5027663;28;20310;-84
2023/05/09 03:20:15;;;;;;;1.10;1.00;;;22.20;81.40;;;;;;5020993;28;20474;-84
2023/05/09 03:22:42;;;;;;;1.50;1.40;;;22.20;81.40;;;;;;5022117;28;20651;-84
2023/05/09 03:25:09;;;;;;;1.40;1.30;;;22.20;81.40;;;;;;5027754;28;20830;-84
2023/05/09 03:27:36;;;;;;;1.52;1.42;;;22.20;81.40;;;;;;5022898;28;20196;-84
2023/05/09 03:30:02;;;;;;;1.67;1.47;;;22.20;81.40;;;;;;5026725;28;20200;-85
2023/05/09 03:32:30;;;;;;;1.75;1.65;;;22.20;81.40;;;;;;5021537;28;20551;-85
2023/05/09 03:34:57;;;;;;;1.40;1.30;;;22.20;81.40;;;;;;5020378;28;20199;-85
2023/05/09 03:37:24;;;;;;;1.40;1.30;;;22.20;81.30;;;;;;5021526;28;21005;-87
2023/05/09 03:39:51;;;;;;;1.30;1.20;;;22.20;81.40;;;;;;5025024;28;20485;-86
2023/05/09 03:42:17;;;;;;;1.57;1.47;;;22.20;81.40;;;;;;5026143;28;20467;-86
2023/05/09 03:44:44;;;;;;;1.70;1.60;;;22.20;81.30;;;;;;5020402;28;20473;-86
2023/05/09 03:47:13;;;;;;;1.50;1.40;;;22.20;82.20;;;;;;5025523;28;20450;-84
2023/05/09 03:49:41;;;;;;;1.50;1.40;;;22.20;81.30;;;;;;5026284;28;20211;-85
2023/05/09 03:52:08;;;;;;;1.60;1.50;;;22.20;81.30;;;;;;5027425;28;20945;-84
2023/05/09 03:54:34;;;;;;;1.40;1.30;;;22.20;81.30;;;;;;5025081;28;20489;-84
2023/05/09 03:57:02;;;;;;;1.50;1.40;;;22.20;81.30;;;;;;5023556;28;20216;-85
2023/05/09 03:59:29;;;;;;;1.48;1.23;;;22.20;81.20;;;;;;5020249;28;20574;-85
2023/05/09 04:01:55;;;;;;;1.40;1.30;;;22.20;81.30;;;;;;5023591;28;20200;-85
2023/05/09 04:04:22;;;;;;;1.65;1.55;;;22.20;81.30;;;;;;5027897;28;20754;-84
2023/05/09 04:06:50;;;;;;;1.20;1.10;;;22.20;81.30;;;;;;5025906;28;20491;-84
2023/05/09 04:09:17;;;;;;;1.40;1.30;;;22.20;82.00;;;;;;5029776;28;20235;-84
2023/05/09 04:11:44;;;;;;;1.70;1.60;;;22.20;81.30;;;;;;5019718;28;20507;-85
2023/05/09 04:14:10;;;;;;;1.58;1.48;;;22.20;81.30;;;;;;5031710;28;20469;-84
2023/05/09 04:16:37;;;;;;;1.33;1.23;;;22.20;81.30;;;;;;5026374;28;20589;-85
2023/05/09 04:19:05;;;;;;;1.85;1.65;;;22.20;81.20;;;;;;5029174;28;20210;-84
2023/05/09 04:21:32;;;;;;;1.30;1.20;;;22.20;81.30;;;;;;5026295;28;20659;-84
2023/05/09 04:24:03;;;;;;;1.40;1.30;;;22.20;81.30;;;;;;5029989;28;20215;-84
2023/05/09 04:26:30;;;;;;;1.35;1.00;;;22.20;81.30;;;;;;5018625;28;20196;-84
2023/05/09 04:28:57;;;;;;;1.48;1.38;;;22.10;81.20;;;;;;5025708;28;20208;-84
2023/05/09 04:31:25;;;;;;;1.58;1.48;;;22.20;81.20;;;;;;5027846;28;20212;-84
2023/05/09 04:33:51;;;;;;;1.40;1.30;;;22.20;81.20;;;;;;5031597;28;20633;-85
2023/05/09 04:36:18;;;;;;;1.73;1.63;;;22.10;81.20;;;;;;5028120;28;20690;-84
2023/05/09 04:38:45;;;;;;;1.50;1.40;;;22.20;81.20;;;;;;5019664;28;20673;-84
2023/05/09 04:41:13;;;;;;;1.63;1.53;;;22.20;81.30;;;;;;5025979;28;20196;-84
2023/05/09 04:43:40;;;;;;;1.40;1.30;;;22.20;81.20;;;;;;5029184;28;20497;-84
2023/05/09 04:46:07;;;;;;;1.50;1.40;;;22.20;81.20;;;;;;5021535;28;20214;-83
2023/05/09 04:48:34;;;;;;;1.75;1.48;;;22.20;81.20;;;;;;5031097;28;20204;-83
2023/05/09 04:51:01;;;;;;;1.27;1.17;;;22.20;81.20;;;;;;5022989;28;20196;-83
2023/05/09 04:53:28;;;;;;;1.52;1.42;;;22.20;81.20;;;;;;5023526;28;20207;-85
2023/05/09 04:55:55;;;;;;;1.25;1.15;;;22.20;81.20;;;;;;5028435;28;20294;-85
2023/05/09 04:58:24;;;;;;;1.48;1.38;;;22.10;81.00;;;;;;5026955;28;20235;-86
2023/05/09 05:00:51;;;;;;;1.85;1.75;;;22.10;81.00;;;;;;5018576;28;20753;-85
2023/05/09 05:03:18;;;;;;;1.20;1.10;;;22.10;81.80;;;;;;5012730;28;20204;-86
2023/05/09 05:05:45;;;;;;;1.27;1.17;;;22.10;81.00;;;;;;5009523;28;20830;-84
2023/05/09 05:08:11;;;;;;;1.40;1.30;;;22.10;81.00;;;;;;5020276;28;20455;-85
2023/05/09 05:10:38;;;;;;;1.20;1.10;;;22.10;81.00;;;;;;5029648;28;20609;-84
2023/05/09 05:13:05;;;;;;;2.00;1.80;;;22.10;81.00;;;;;;5031368;28;20454;-85
2023/05/09 05:15:33;;;;;;;1.67;1.40;;;22.10;81.00;;;;;;5021136;28;20211;-84
2023/05/09 05:18:00;;;;;;;1.60;1.50;;;22.10;81.10;;;;;;5024734;28;20483;-85
2023/05/09 05:20:26;;;;;;;1.30;1.20;;;22.10;81.00;;;;;;5028884;28;20941;-84
2023/05/09 05:22:53;;;;;;;1.77;1.67;;;22.10;81.00;;;;;;5028658;28;20447;-84
2023/05/09 05:25:21;;;;;;;1.27;1.17;;;22.10;81.10;;;;;;5022345;28;20873;-85
2023/05/09 05:27:47;;;;;;;1.63;1.30;;;22.10;81.00;;;;;;5023329;28;20209;-84
2023/05/09 05:30:15;;;;;;;1.30;1.20;;;22.10;81.00;;;;;;5025988;28;20204;-85
2023/05/09 05:32:43;;;;;;;1.30;1.20;;;22.10;81.00;;;;;;5025324;28;20836;-85
2023/05/09 05:35:11;;;;;;;1.40;1.30;;;22.10;81.00;;;;;;5028124;28;20451;-85
2023/05/09 05:37:38;;;;;;;1.50;1.20;;;22.20;81.20;;;;;;5027589;28;20882;-85
2023/05/09 05:40:06;;;;;;;1.50;1.40;;;22.20;81.20;;;;;;5026169;28;20309;-86
2023/05/09 05:42:33;;;;;;;1.38;1.27;;;22.20;81.20;;;;;;5026460;28;20450;-86
2023/05/09 05:45:03;;;;;;;1.47;1.37;;;22.20;81.30;;;;;;5027221;28;20196;-86
2023/05/09 05:47:31;;;;;;;1.30;1.20;;;22.20;81.20;;;;;;5021249;28;20953;-84
2023/05/09 05:50:05;;;;;;;1.43;1.33;;;22.20;81.20;;;;;;5022303;28;20451;-85
2023/05/09 05:52:32;;;;;;;1.57;1.40;;;22.20;81.10;;;;;;5019636;28;20898;-85
2023/05/09 05:54:59;;;;;;;1.20;1.10;;;22.20;81.10;;;;;;5028276;28;20461;-82
2023/05/09 05:57:26;;;;;;;1.83;1.73;;;22.20;81.00;;;;;;5024530;28;21015;-82
2023/05/09 05:59:52;;;;;;;2.60;1.57;;;22.20;81.40;;;;;;5025132;28;20467;-85
2023/05/09 06:02:19;;;;;;;1.50;1.40;;;22.20;81.50;;;;;;5024558;28;20458;-83
2023/05/09 06:04:46;;;;;;;1.40;1.30;;;22.10;82.10;;;;;;5026204;28;20459;-84
2023/05/09 06:07:15;;;;;;;1.90;1.70;;;22.20;82.60;;;;;;5023564;28;20196;-84
2023/05/09 06:09:42;;;;;;;1.57;1.47;;;22.20;81.80;;;;;;5025875;28;20494;-83
2023/05/09 06:12:10;;;;;;;1.77;1.67;;;22.20;81.80;;;;;;5021391;28;20471;-84
2023/05/09 06:14:37;;;;;;;1.77;1.67;;;22.20;81.70;;;;;;5027999;28;20509;-84
2023/05/09 06:17:04;;;;;;;1.60;1.50;;;22.20;81.60;;;;;;5030179;28;20443;-85
2023/05/09 06:19:31;;;;;;;1.70;1.60;;;22.30;81.70;;;;;;5022853;28;20474;-84
2023/05/09 06:21:57;;;;;;;1.47;1.37;;;22.30;81.80;;;;;;5025643;28;20953;-84
2023/05/09 06:24:25;;;;;;;1.50;1.40;;;22.30;81.50;;;;;;5024964;28;20460;-84
2023/05/09 06:26:52;;;;;;;1.70;1.60;;;22.30;81.50;;;;;;5018702;28;20447;-84
2023/05/09 06:29:19;;;;;;;1.43;1.33;;;22.30;81.50;;;;;;5027389;28;21465;-84
2023/05/09 06:31:46;;;;;;;1.60;1.50;;;22.30;81.40;;;;;;5027166;28;20541;-84
2023/05/09 06:34:14;;;;;;;1.50;1.40;;;22.30;81.40;;;;;;5018406;28;20452;-84
2023/05/09 06:36:40;;;;;;;1.40;1.30;;;22.30;81.40;;;;;;5024011;28;21023;-84
2023/05/09 06:39:07;;;;;;;1.35;1.23;;;22.30;82.10;;;;;;5023111;28;20492;-84
2023/05/09 06:41:35;;;;;;;1.57;1.47;;;22.30;81.40;;;;;;5024610;28;20215;-84
2023/05/09 06:44:02;;;;;;;1.47;1.37;;;22.30;81.40;;;;;;5024668;28;20462;-84
2023/05/09 06:46:29;;;;;;;1.27;1.17;;;22.30;81.30;;;;;;5024449;28;20459;-84
2023/05/09 06:48:55;;;;;;;1.63;1.53;;;22.30;81.30;;;;;;5027855;28;20477;-84
2023/05/09 06:51:22;;;;;;;1.53;1.43;;;22.30;81.20;;;;;;5023015;28;20467;-83
2023/05/09 06:53:49;;;;;;;1.57;1.47;;;22.30;81.30;;;;;;5016284;28;20826;-83
2023/05/09 06:56:18;;;;;;;1.53;1.40;;;22.30;81.30;;;;;;5026065;28;20529;-83
2023/05/09 06:58:46;;;;;;;1.43;1.20;;;22.30;81.20;;;;;;5021761;28;20486;-84
2023/05/09 07:01:13;;;;;;;1.47;1.37;;;22.30;81.30;;;;;;5020757;28;20467;-84
2023/05/09 07:03:40;;;;;;;1.37;1.27;;;22.30;81.10;;;;;;5030627;28;20501;-84
2023/05/09 07:06:07;;;;;;;1.40;1.30;;;22.30;81.10;;;;;;5021855;28;20459;-83
2023/05/09 07:08:34;;;;;;;1.50;1.40;;;22.30;81.00;;;;;;5025726;28;20968;-84
2023/05/09 07:11:01;;;;;;;1.30;1.20;;;22.30;81.10;;;;;;5025605;28;20459;-84
2023/05/09 07:13:28;;;;;;;1.35;1.25;;;22.30;81.00;;;;;;5024246;28;20996;-84
2023/05/09 07:15:56;;;;;;;2.00;1.90;;;22.30;81.00;;;;;;5024102;28;20663;-84
2023/05/09 07:18:23;;;;;;;1.50;1.40;;;22.30;81.00;;;;;;5029454;28;20478;-84
2023/05/09 07:20:50;;;;;;;1.90;1.70;;;22.30;81.00;;;;;;5023288;28;20982;-84
2023/05/09 07:23:17;;;;;;;1.60;1.50;;;22.30;80.90;;;;;;5025129;28;20853;-84
2023/05/09 07:25:44;;;;;;;1.57;1.47;;;22.30;81.00;;;;;;5026047;28;20200;-84
2023/05/09 07:28:11;;;;;;;1.80;1.47;;;22.30;81.00;;;;;;5025642;28;20459;-84
2023/05/09 07:30:38;;;;;;;1.42;1.33;;;22.30;81.00;;;;;;5024615;28;20466;-86
2023/05/09 07:33:06;;;;;;;1.27;1.17;;;22.30;81.00;;;;;;5027072;28;20196;-84
2023/05/09 07:35:33;;;;;;;1.90;1.70;;;22.30;80.90;;;;;;5021374;28;20462;-84
2023/05/09 07:38:00;;;;;;;1.50;1.40;;;22.30;80.90;;;;;;5018172;28;21015;-84
2023/05/09 07:40:27;;;;;;;1.70;1.60;;;22.30;80.90;;;;;;5028201;28;20465;-83
2023/05/09 07:42:55;;;;;;;1.30;1.20;;;22.30;80.90;;;;;;5028806;28;20992;-84
2023/05/09 07:45:22;;;;;;;1.30;1.20;;;22.30;80.90;;;;;;5030344;28;20469;-85
2023/05/09 07:47:49;;;;;;;1.40;1.30;;;22.30;80.90;;;;;;5024711;28;20455;-83
2023/05/09 07:50:17;;;;;;;1.27;1.17;;;22.30;80.90;;;;;;5030093;28;20491;-83
2023/05/09 07:52:43;;;;;;;1.70;1.60;;;22.30;80.90;;;;;;5017658;28;20478;-84
2023/05/09 07:55:11;;;;;;;4.07;1.50;;;22.30;80.90;;;;;;5023167;28;22941;-84
2023/05/09 07:57:38;;;;;;;1.60;1.50;;;22.30;80.80;;;;;;5025821;28;20481;-83
2023/05/09 08:00:06;;;;;;;1.63;1.53;;;22.30;80.80;;;;;;5027820;28;20474;-83
2023/05/09 08:02:33;;;;;;;1.60;1.50;;;22.30;80.80;;;;;;5023981;28;20459;-83
2023/05/09 08:05:00;;;;;;;1.70;1.60;;;22.30;80.80;;;;;;5030064;28;20477;-83
2023/05/09 08:07:28;;;;;;;1.57;1.47;;;22.40;80.90;;;;;;5026772;28;20459;-83
2023/05/09 08:09:55;;;;;;;1.57;1.47;;;22.30;80.90;;;;;;5028874;28;20460;-84
2023/05/09 08:12:21;;;;;;;1.50;1.40;;;22.40;80.90;;;;;;5030067;28;20447;-83
2023/05/09 08:14:48;;;;;;;1.57;1.33;;;22.40;80.90;;;;;;5027037;28;20467;-84
2023/05/09 08:17:15;;;;;;;1.93;1.83;;;22.40;80.90;;;;;;5025888;28;20465;-84
2023/05/09 08:19:41;;;;;;;1.67;1.57;;;22.40;80.90;;;;;;5023312;28;20485;-84
2023/05/09 08:22:08;;;;;;;1.27;1.17;;;22.40;80.90;;;;;;5023345;28;20462;-84
2023/05/09 08:24:38;;;;;;;1.50;1.40;;;22.30;80.80;;;;;;5029689;28;20492;-84
2023/05/09 08:27:05;;;;;;;1.50;1.40;;;22.40;80.90;;;;;;5024338;28;20938;-84
2023/05/09 08:29:33;;;;;;;1.50;1.40;;;22.40;80.90;;;;;;5029966;28;20461;-84
2023/05/09 08:32:00;;;;;;;1.30;1.10;;;22.40;81.00;;;;;;5025624;28;20626;-84
2023/05/09 08:34:27;;;;;;;1.50;1.40;;;22.40;80.90;;;;;;5026809;28;20463;-82
2023/05/09 08:36:54;;;;;;;1.83;1.73;;;22.40;80.90;;;;;;5025378;28;20957;-83
2023/05/09 08:39:21;;;;;;;1.30;1.20;;;22.40;80.90;;;;;;5029534;28;20485;-82
2023/05/09 08:41:50;;;;;;;1.50;1.40;;;22.40;80.90;;;;;;5028626;28;20469;-82
2023/05/09 08:44:17;;;;;;;1.30;1.20;;;22.40;80.90;;;;;;5029892;28;20458;-82
2023/05/09 08:46:46;;;;;;;2.70;1.40;;;22.40;81.00;;;;;;5031986;28;21074;-83
2023/05/09 08:49:16;;;;;;;1.50;1.40;;;22.40;81.20;;;;;;5027164;28;20460;-86
2023/05/09 08:51:44;;;;;;;8.93;1.83;;;22.40;81.40;;;;;;5011148;28;20498;-83
2023/05/09 08:54:11;;;;;;;1.30;1.10;;;22.40;81.50;;;;;;5015454;28;20463;-82
2023/05/09 08:56:38;;;;;;;1.33;1.20;;;22.40;81.60;;;;;;5029945;28;20549;-82
2023/05/09 08:59:07;;;;;;;1.27;1.17;;;22.40;81.60;;;;;;5026262;28;20486;-82
2023/05/09 09:01:36;;;;;;;8.33;1.90;;;22.40;81.80;;;;;;5027744;28;20463;-82
2023/05/09 09:04:05;;;;;;;9.43;1.30;;;22.40;81.60;;;;;;5032290;28;20451;-83
2023/05/09 09:06:34;;;;;;;1.37;1.27;;;22.40;81.70;;;;;;5010111;28;21036;-83
2023/05/09 09:09:01;;;;;;;2.10;1.90;;;22.40;81.60;;;;;;5025235;28;20456;-83
2023/05/09 09:11:29;;;;;;;1.33;1.23;;;22.40;81.60;;;;;;5037488;28;20969;-86
2023/05/09 09:14:03;;;;;;;1.60;1.50;;;22.40;81.60;;;;;;5033589;28;20459;-86
2023/05/09 09:16:32;;;;;;;1.60;1.50;;;22.40;81.60;;;;;;5029641;28;20256;-86
2023/05/09 09:19:01;;;;;;;1.73;1.63;;;22.40;81.60;;;;;;5036034;28;20474;-83
2023/05/09 09:21:28;;;;;;;1.90;1.43;;;22.40;81.60;;;;;;5028775;28;20995;-83
2023/05/09 09:23:55;;;;;;;1.30;1.20;;;22.40;81.60;;;;;;5029965;28;20967;-84
2023/05/09 09:26:23;;;;;;;1.70;1.50;;;22.40;81.60;;;;;;5021514;28;20470;-83
2023/05/09 09:28:50;;;;;;;1.40;1.30;;;22.40;81.60;;;;;;5029740;28;20454;-83
2023/05/09 09:31:21;;;;;;;2.10;1.40;;;22.40;81.60;;;;;;5032890;28;20837;-84
2023/05/09 09:33:49;;;;;;;1.30;1.20;;;22.40;81.70;;;;;;5035974;28;20459;-83
2023/05/09 09:36:16;;;;;;;1.50;1.30;;;22.40;81.50;;;;;;5036633;28;20478;-83
2023/05/09 09:38:43;;;;;;;1.50;1.40;;;22.40;81.60;;;;;;5034462;28;20483;-85
2023/05/09 09:41:12;;;;;;;1.40;1.20;;;22.40;81.60;;;;;;5041030;28;20463;-84
2023/05/09 09:43:38;;;;;;;1.50;1.40;;;22.40;81.60;;;;;;5037484;28;20463;-83
2023/05/09 09:46:05;;;;;;;2.57;1.60;;;22.40;81.60;;;;;;5022095;28;20458;-84
2023/05/09 09:48:33;;;;;;;1.93;1.80;;;22.30;81.50;;;;;;5021921;28;20813;-85
2023/05/09 09:51:08;;;;;;;3.10;1.40;;;22.40;81.60;;;;;;5036839;28;20458;-83
2023/05/09 09:53:39;;;;;;;6.70;1.60;;;22.40;81.50;;;;;;5026408;28;20504;-83
2023/05/09 09:56:06;;;;;;;1.50;1.40;;;22.40;81.50;;;;;;5032656;28;20973;-83
2023/05/09 09:58:33;;;;;;;1.83;1.73;;;22.40;81.70;;;;;;5028662;28;20482;-82
2023/05/09 10:01:07;;;;;;;1.60;1.50;;;22.40;81.50;;;;;;5035049;28;20443;-84
2023/05/09 10:03:38;;;;;;;1.80;1.50;;;22.30;81.40;;;;;;5035391;28;20477;-85
2023/05/09 10:06:10;;;;;;;1.30;1.20;;;22.40;81.50;;;;;;5035416;28;20442;-83
2023/05/09 10:08:38;;;;;;;1.60;1.50;;;22.40;81.60;;;;;;5036963;28;20481;-84
2023/05/09 10:11:04;;;;;;;1.80;1.70;;;22.40;81.60;;;;;;5031665;28;20459;-84
2023/05/09 10:13:34;;;;;;;2.10;1.33;;;22.40;81.50;;;;;;5026095;28;20462;-84
2023/05/09 10:16:03;;;;;;;1.30;1.20;;;22.40;81.50;;;;;;5029439;28;20260;-84
2023/05/09 10:18:31;;;;;;;1.60;1.50;;;22.40;81.50;;;;;;5030770;28;20485;-84
2023/05/09 10:21:00;;;;;;;1.50;1.40;;;22.40;81.50;;;;;;5029920;28;20466;-84
2023/05/09 10:23:30;;;;;;;1.47;1.37;;;22.40;81.50;;;;;;5033049;28;20505;-83
2023/05/09 10:26:03;;;;;;;1.20;1.10;;;22.40;81.50;;;;;;5031518;28;20987;-84
2023/05/09 10:28:33;;;;;;;1.37;1.27;;;22.40;81.50;;;;;;5035032;28;20443;-83
2023/05/09 10:31:05;;;;;;;2.10;1.67;;;22.40;81.50;;;;;;5020427;28;20460;-84
2023/05/09 10:33:37;;;;;;;1.80;1.70;;;22.40;81.40;;;;;;5024326;28;20462;-85
2023/05/09 10:36:06;;;;;;;1.37;1.27;;;22.40;81.50;;;;;;5032923;28;20592;-84
2023/05/09 10:38:34;;;;;;;1.50;1.40;;;22.40;81.50;;;;;;5032960;28;20845;-84
2023/05/09 10:41:01;;;;;;;1.93;1.70;;;22.40;81.50;;;;;;5030373;28;20458;-87
2023/05/09 10:43:30;;;;;;;2.20;2.00;;;22.40;81.40;;;;;;5023077;28;20458;-83
2023/05/09 10:45:57;;;;;;;4.80;2.50;;;22.30;81.90;;;;;;5021789;28;20538;-82
2023/05/09 10:48:24;;;;;;;2.30;2.20;;;22.40;82.00;;;;;;5018294;28;20459;-87
2023/05/09 10:50:51;;;;;;;5.70;2.23;;;22.40;82.40;;;;;;5023033;28;20976;-87
2023/05/09 10:53:20;;;;;;;3.27;2.97;;;22.40;82.40;;;;;;5025206;28;20463;-87
2023/05/09 10:55:54;;;;;;;3.07;2.87;;;22.40;82.70;;;;;;5017232;28;20470;-88
2023/05/09 10:58:28;;;;;;;3.30;3.00;;;22.40;82.80;;;;;;5016377;28;20511;-89
2023/05/09 11:00:56;;;;;;;3.83;3.53;;;22.40;83.20;;;;;;5022832;28;20469;-84
2023/05/09 11:03:28;;;;;;;3.57;3.20;;;22.40;83.40;;;;;;5023039;28;20463;-91
2023/05/09 11:05:57;;;;;;;3.70;3.40;;;22.40;83.70;;;;;;5019291;28;20447;-95
2023/05/09 11:08:26;;;;;;;7.40;3.50;;;22.50;83.80;;;;;;5022809;28;20459;-93
2023/05/09 11:11:06;;;;;;;3.70;3.50;;;22.50;83.80;;;;;;5030704;28;20452;-93
2023/05/09 11:14:04;;;;;;;4.60;3.10;;;22.50;83.90;;;;;;5039836;28;20500;-92
2023/05/09 11:16:56;;;;;;;2.93;2.73;;;22.50;84.10;;;;;;5028568;28;20788;-91
2023/05/09 11:19:35;;;;;;;3.30;2.67;;;22.60;84.30;;;;;;5039273;28;20513;-87
2023/05/09 11:22:02;;;;;;;3.13;2.90;;;22.60;84.10;;;;;;5030406;28;20450;-88
2023/05/09 11:24:32;;;;;;;4.03;2.60;;;22.60;85.30;;;;;;5026807;28;20922;-87
2023/05/09 11:27:01;;;;;;;2.90;2.67;;;22.50;85.70;;;;;;5025760;28;20942;-88
2023/05/09 11:29:27;;;;;;;3.50;3.20;;;22.50;85.60;;;;;;5025795;28;20992;-86
2023/05/09 11:32:07;;;;;;;5.50;3.20;;;22.50;85.50;;;;;;5020596;28;21504;-84
2023/05/09 11:34:34;;;;;;;3.23;2.70;;;22.50;85.50;;;;;;5018750;28;20458;-88
2023/05/09 11:37:09;;;;;;;8.60;2.93;;;22.60;85.70;;;;;;5021523;28;21031;-86
2023/05/09 11:39:54;;;;;;;4.13;2.70;;;22.70;85.10;;;;;;5025865;28;21008;-88
2023/05/09 11:42:23;;;;;;;4.17;3.17;;;22.70;84.60;;;;;;5012430;28;21753;-88
2023/05/09 11:44:51;;;;;;;4.30;2.43;;;22.70;84.40;;;;;;5018458;28;20467;-88
2023/05/09 11:47:18;;;;;;;5.00;2.67;;;22.70;84.00;;;;;;5018129;28;20581;-87
2023/05/09 11:49:44;;;;;;;5.17;2.60;;;22.70;84.40;;;;;;5018252;28;20519;-85
2023/05/09 11:52:11;;;;;;;4.20;2.97;;;22.70;84.70;;;;;;5024576;28;20486;-88
2023/05/09 11:54:39;;;;;;;3.83;3.57;;;22.70;85.20;;;;;;5023559;28;20455;-85
2023/05/09 11:57:06;;;;;;;3.63;2.73;;;22.70;85.30;;;;;;5019062;28;20467;-85
2023/05/09 11:59:35;;;;;;;4.20;3.20;;;22.70;85.50;;;;;;5017197;28;20472;-86
2023/05/09 12:02:05;;;;;;;8.23;3.43;;;22.70;85.50;;;;;;5019615;28;20463;-84
2023/05/09 12:04:34;;;;;;;3.67;2.83;;;22.80;85.40;;;;;;5019082;28;20479;-90
2023/05/09 12:07:01;;;;;;;2.87;2.67;;;22.80;85.30;;;;;;5023431;28;20453;-89
2023/05/09 12:09:31;;;;;;;2.40;2.20;;;22.90;85.20;;;;;;5025941;28;20793;-82
2023/05/09 12:11:58;;;;;;;3.50;2.70;;;22.90;84.70;;;;;;5022624;28;20548;-83
2023/05/09 12:14:29;;;;;;;2.70;2.50;;;22.90;84.50;;;;;;5020749;28;21010;-83
2023/05/09 12:16:58;;;;;;;7.10;3.03;;;22.90;85.00;;;;;;5020807;28;21000;-89
2023/05/09 12:19:25;;;;;;;2.80;2.50;;;22.90;84.70;;;;;;5022945;28;20586;-89
2023/05/09 12:21:56;;;;;;;2.93;2.43;;;23.00;84.70;;;;;;5025399;28;20951;-89
2023/05/09 12:24:25;;;;;;;2.60;2.40;;;23.00;84.60;;;;;;5019818;28;20906;-89
2023/05/09 12:26:52;;;;;;;6.00;2.33;;;23.00;84.30;;;;;;5024679;28;20506;-90
2023/05/09 12:29:19;;;;;;;3.23;2.83;;;23.10;84.30;;;;;;5020317;28;20455;-90
2023/05/09 12:31:47;;;;;;;5.00;2.90;;;23.10;84.20;;;;;;5024244;28;20946;-90
2023/05/09 12:34:15;;;;;;;2.40;2.20;;;23.10;84.10;;;;;;5027105;28;20855;-90
2023/05/09 12:36:49;;;;;;;2.80;2.60;;;23.20;84.10;;;;;;5028855;28;20564;-90
2023/05/09 12:39:17;;;;;;;2.70;2.50;;;23.20;84.00;;;;;;5023079;28;20490;-84
2023/05/09 12:41:44;;;;;;;3.73;2.33;;;23.20;83.80;;;;;;5022384;28;20462;-86
2023/05/09 12:44:19;;;;;;;1.97;1.87;;;23.20;83.70;;;;;;5029513;28;20455;-88
2023/05/09 12:46:54;;;;;;;6.60;2.37;;;23.20;83.70;;;;;;5031493;28;20678;-90
2023/05/09 12:49:23;;;;;;;2.63;2.43;;;23.20;83.60;;;;;;5021249;28;20529;-91
2023/05/09 12:51:51;;;;;;;2.83;2.57;;;23.30;83.60;;;;;;5030054;28;20456;-91
2023/05/09 12:54:21;;;;;;;2.83;2.63;;;23.30;83.50;;;;;;5029430;28;20984;-90